createdAt,value
2022-11-02T00:01:21.828Z,83.57
2022-11-02T00:03:49.101Z,83.48
2022-11-02T00:06:16.037Z,83.32
2022-11-02T00:08:43.387Z,83.65
2022-11-02T00:11:11.654Z,83.57
2022-11-02T00:13:39.009Z,83.27
2022-11-02T00:16:10.214Z,83.28
2022-11-02T00:18:37.909Z,82.79
2022-11-02T00:21:06.176Z,82.96
2022-11-02T00:23:33.742Z,83.12
2022-11-02T00:26:02.996Z,82.72
2022-11-02T00:28:31.243Z,82.96
2022-11-02T00:31:02.004Z,82.97
2022-11-02T00:33:30.020Z,82.58
2022-11-02T00:36:02.250Z,82.97
2022-11-02T00:38:29.805Z,82.66
2022-11-02T00:40:57.034Z,82.71
2022-11-02T00:43:24.843Z,82.57
2022-11-02T00:45:52.207Z,82.77
2022-11-02T00:48:19.902Z,82.94
2022-11-02T00:50:47.714Z,82.88
2022-11-02T00:53:15.491Z,82.93
2022-11-02T00:55:51.769Z,83.18
2022-11-02T00:58:18.847Z,83.57
2022-11-02T01:00:46.171Z,83.08
2022-11-02T01:03:13.292Z,83.37
2022-11-02T01:05:41.508Z,83.41
2022-11-02T01:08:10.232Z,83.40
2022-11-02T01:10:37.461Z,83.61
2022-11-02T01:13:04.661Z,83.71
2022-11-02T01:15:31.839Z,83.91
2022-11-02T01:17:59.201Z,83.10
2022-11-02T01:20:28.717Z,83.42
2022-11-02T01:22:57.371Z,83.65
2022-11-02T01:25:24.727Z,83.23
2022-11-02T01:27:52.083Z,83.25
2022-11-02T01:30:19.309Z,83.49
2022-11-02T01:32:46.542Z,82.94
2022-11-02T01:35:14.072Z,82.58
2022-11-02T01:37:41.359Z,82.72
2022-11-02T01:40:10.085Z,82.61
2022-11-02T01:42:38.010Z,82.33
2022-11-02T01:45:05.580Z,81.85
2022-11-02T01:47:42.838Z,81.98
2022-11-02T01:50:24.217Z,82.24
2022-11-02T01:52:52.089Z,82.51
2022-11-02T01:55:25.005Z,82.98
2022-11-02T01:58:12.847Z,83.23
2022-11-02T02:00:40.741Z,83.02
2022-11-02T02:03:17.074Z,82.88
2022-11-02T02:05:51.663Z,82.86
2022-11-02T02:08:23.702Z,83.25
2022-11-02T02:10:51.943Z,83.20
2022-11-02T02:13:19.600Z,82.93
2022-11-02T02:15:48.813Z,83.11
2022-11-02T02:18:23.950Z,83.18
2022-11-02T02:21:00.103Z,82.97
2022-11-02T02:23:33.261Z,83.10
2022-11-02T02:26:00.667Z,82.99
2022-11-02T02:28:40.500Z,82.97
2022-11-02T02:31:40.530Z,83.04
2022-11-02T02:34:17.027Z,82.89
2022-11-02T02:37:01.551Z,82.28
2022-11-02T02:39:39.161Z,82.93
2022-11-02T02:42:21.617Z,82.93
2022-11-02T02:45:07.271Z,83.00
2022-11-02T02:47:39.407Z,82.89
2022-11-02T02:50:15.608Z,82.54
2022-11-02T02:52:45.091Z,82.36
2022-11-02T02:58:03.987Z,82.21
2022-11-02T03:00:36.306Z,82.16
2022-11-02T03:03:05.959Z,82.29
2022-11-02T03:05:35.682Z,82.39
2022-11-02T03:08:12.775Z,82.87
2022-11-02T03:11:10.868Z,82.60
2022-11-02T03:14:00.045Z,82.83
2022-11-02T03:16:40.429Z,82.63
2022-11-02T03:19:45.092Z,82.92
2022-11-02T03:22:32.146Z,82.86
2022-11-02T03:25:31.367Z,83.08
2022-11-02T03:28:10.783Z,82.85
2022-11-02T03:30:47.747Z,83.27
2022-11-02T03:33:26.292Z,83.71
2022-11-02T03:35:54.556Z,83.80
2022-11-02T03:38:29.956Z,84.28
2022-11-02T03:40:59.143Z,84.82
2022-11-02T03:43:27.762Z,84.80
2022-11-02T03:45:58.376Z,84.59
2022-11-02T03:48:32.356Z,85.20
2022-11-02T03:51:10.145Z,85.45
2022-11-02T03:53:48.799Z,85.55
2022-11-02T03:56:25.346Z,85.92
2022-11-02T03:58:53.283Z,86.50
2022-11-02T04:01:23.778Z,86.47
2022-11-02T04:06:36.419Z,86.93
2022-11-02T04:14:48.090Z,87.33
2022-11-02T04:17:37.564Z,87.44
2022-11-02T04:20:12.545Z,87.68
2022-11-02T04:22:58.833Z,87.29
2022-11-02T04:25:26.524Z,87.20
2022-11-02T04:30:51.618Z,86.72
2022-11-02T04:33:42.230Z,86.58
2022-11-02T04:36:23.843Z,86.70
2022-11-02T04:39:02.822Z,86.97
2022-11-02T04:41:43.885Z,87.17
2022-11-02T04:47:28.323Z,87.50
2022-11-02T04:50:02.553Z,86.56
2022-11-02T04:52:33.976Z,87.04
2022-11-02T04:55:01.280Z,86.81
2022-11-02T04:57:30.306Z,85.84
2022-11-02T04:59:59.594Z,86.48
2022-11-02T05:02:27.413Z,85.67
2022-11-02T05:04:56.187Z,85.03
2022-11-02T05:07:23.086Z,84.01
2022-11-02T05:09:51.000Z,84.46
2022-11-02T05:12:18.060Z,85.72
2022-11-02T05:14:48.100Z,85.30
2022-11-02T05:17:16.475Z,84.79
2022-11-02T05:19:44.351Z,84.70
2022-11-02T05:22:11.723Z,84.88
2022-11-02T05:24:39.594Z,84.76
2022-11-02T05:27:19.606Z,84.76
2022-11-02T05:32:33.087Z,86.14
2022-11-02T05:35:02.169Z,85.79
2022-11-02T05:37:33.723Z,85.19
2022-11-02T05:40:04.196Z,85.17
2022-11-02T05:42:32.372Z,84.97
2022-11-02T05:45:04.379Z,84.81
2022-11-02T05:47:32.771Z,84.41
2022-11-02T05:50:00.227Z,84.54
2022-11-02T05:52:28.087Z,84.82
2022-11-02T05:54:56.607Z,85.12
2022-11-02T05:57:33.003Z,84.96
2022-11-02T06:00:00.614Z,84.03
2022-11-02T06:02:27.894Z,83.82
2022-11-02T06:04:55.231Z,84.13
2022-11-02T06:07:23.493Z,84.17
2022-11-02T06:09:50.645Z,83.60
2022-11-02T06:12:17.864Z,84.13
2022-11-02T06:14:45.125Z,84.00
2022-11-02T06:17:12.029Z,84.16
2022-11-02T06:19:39.402Z,84.49
2022-11-02T06:22:07.780Z,84.33
2022-11-02T06:24:35.158Z,84.18
2022-11-02T06:27:10.399Z,84.56
2022-11-02T06:29:38.511Z,83.98
2022-11-02T06:32:06.767Z,84.13
2022-11-02T06:34:34.030Z,84.41
2022-11-02T06:37:01.153Z,84.47
2022-11-02T06:39:28.271Z,84.31
2022-11-02T06:41:55.883Z,84.39
2022-11-02T06:44:22.970Z,84.58
2022-11-02T06:46:50.039Z,84.42
2022-11-02T06:49:17.180Z,84.34
2022-11-02T06:51:44.691Z,84.33
2022-11-02T06:54:14.947Z,84.25
2022-11-02T06:56:43.055Z,84.19
2022-11-02T06:59:10.730Z,83.68
2022-11-02T07:01:38.681Z,84.36
2022-11-02T07:04:06.579Z,84.54
2022-11-02T07:06:33.844Z,85.37
2022-11-02T07:12:11.067Z,84.24
2022-11-02T07:14:39.711Z,83.57
2022-11-02T07:17:07.307Z,83.53
2022-11-02T07:19:34.404Z,83.51
2022-11-02T07:22:04.024Z,83.42
2022-11-02T07:24:31.275Z,83.75
2022-11-02T07:26:58.636Z,84.23
2022-11-02T07:29:25.824Z,84.08
2022-11-02T07:31:53.286Z,84.47
2022-11-02T07:34:29.043Z,84.03
2022-11-02T07:36:56.760Z,84.31
2022-11-02T07:39:25.225Z,84.47
2022-11-02T07:41:52.634Z,84.41
2022-11-02T07:44:19.986Z,84.94
2022-11-02T07:49:37.283Z,83.84
2022-11-02T07:52:04.514Z,83.19
2022-11-02T07:54:31.430Z,83.59
2022-11-02T07:56:58.789Z,84.16
2022-11-02T07:59:25.881Z,83.77
2022-11-02T08:01:53.163Z,84.45
2022-11-02T08:06:47.247Z,83.88
2022-11-02T08:09:15.925Z,84.13
2022-11-02T08:11:43.181Z,84.49
2022-11-02T08:14:11.531Z,83.79
2022-11-02T08:16:41.592Z,83.55
2022-11-02T08:19:08.820Z,82.80
2022-11-02T08:21:38.964Z,82.45
2022-11-02T08:24:06.475Z,82.51
2022-11-02T08:26:33.817Z,82.96
2022-11-02T08:29:00.793Z,83.32
2022-11-02T08:31:28.114Z,83.48
2022-11-02T08:33:55.621Z,83.16
2022-11-02T08:36:22.879Z,83.00
2022-11-02T08:38:50.209Z,82.65
2022-11-02T08:41:17.347Z,82.17
2022-11-02T08:43:44.292Z,82.50
2022-11-02T08:46:16.015Z,82.44
2022-11-02T08:48:43.910Z,81.92
2022-11-02T08:51:12.177Z,81.59
2022-11-02T08:53:39.444Z,82.45
2022-11-02T08:56:07.063Z,82.53
2022-11-02T08:58:34.411Z,81.76
2022-11-02T09:01:01.588Z,81.60
2022-11-02T09:03:28.562Z,80.71
2022-11-02T09:06:01.138Z,80.85
2022-11-02T09:08:30.497Z,81.67
2022-11-02T09:11:03.256Z,81.94
2022-11-02T09:13:31.178Z,81.35
2022-11-02T09:15:59.964Z,81.53
2022-11-02T09:18:27.166Z,80.96
2022-11-02T09:20:54.418Z,81.12
2022-11-02T09:23:22.217Z,81.22
2022-11-02T09:25:50.294Z,81.95
2022-11-02T09:28:18.027Z,81.70
2022-11-02T09:30:45.992Z,81.82
2022-11-02T09:33:13.813Z,81.25
2022-11-02T09:35:44.586Z,81.32
2022-11-02T09:38:12.755Z,81.45
2022-11-02T09:41:02.373Z,82.08
2022-11-02T09:43:54.112Z,81.76
2022-11-02T09:46:24.734Z,81.53
2022-11-02T09:48:54.280Z,81.49
2022-11-02T09:51:25.862Z,80.75
2022-11-02T09:54:11.554Z,80.40
2022-11-02T09:56:43.774Z,81.23
2022-11-02T09:59:22.129Z,81.50
2022-11-02T10:02:08.176Z,81.64
2022-11-02T10:04:47.103Z,81.43
2022-11-02T10:07:20.201Z,81.40
2022-11-02T10:09:56.540Z,81.07
2022-11-02T10:12:48.392Z,81.11
2022-11-02T10:15:28.855Z,80.89
2022-11-02T10:18:03.958Z,80.92
2022-11-02T10:23:34.659Z,80.81
2022-11-02T10:26:03.200Z,81.06
2022-11-02T10:28:36.692Z,81.09
2022-11-02T10:31:11.794Z,80.69
2022-11-02T10:33:42.586Z,81.41
2022-11-02T10:36:18.220Z,80.87
2022-11-02T10:39:10.151Z,80.83
2022-11-02T10:41:53.559Z,80.67
2022-11-02T10:44:33.314Z,80.66
2022-11-02T10:47:05.286Z,80.33
2022-11-02T10:49:50.588Z,80.06
2022-11-02T10:52:18.801Z,81.40
2022-11-02T10:54:49.759Z,81.69
2022-11-02T10:57:23.803Z,81.51
2022-11-02T11:00:23.121Z,81.09
2022-11-02T11:03:14.561Z,80.21
2022-11-02T11:05:51.778Z,80.21
2022-11-02T11:08:40.973Z,79.43
2022-11-02T11:11:25.087Z,80.22
2022-11-02T11:16:57.070Z,78.17
2022-11-02T11:22:25.001Z,78.15
2022-11-02T11:24:52.577Z,78.54
2022-11-02T11:27:22.429Z,79.16
2022-11-02T11:29:57.855Z,77.63
2022-11-02T11:32:30.489Z,77.04
2022-11-02T11:35:08.125Z,77.34
2022-11-02T11:37:36.255Z,77.98
2022-11-02T11:40:06.880Z,77.48
2022-11-02T11:42:37.632Z,77.70
2022-11-02T11:45:06.885Z,77.47
2022-11-02T11:47:40.599Z,76.62
2022-11-02T11:50:19.595Z,76.46
2022-11-02T11:53:10.524Z,77.83
2022-11-02T11:55:47.507Z,76.93
2022-11-02T11:58:23.721Z,77.24
2022-11-02T12:01:16.668Z,77.16
2022-11-02T12:03:58.271Z,77.21
2022-11-02T12:06:38.089Z,76.79
2022-11-02T12:09:30.112Z,77.25
2022-11-02T12:12:09.244Z,76.70
2022-11-02T12:14:42.779Z,77.16
2022-11-02T12:17:10.041Z,76.93
2022-11-02T12:19:47.082Z,76.74
2022-11-02T12:22:41.436Z,76.98
2022-11-02T12:25:21.126Z,76.98
2022-11-02T12:28:13.547Z,76.80
2022-11-02T12:30:52.442Z,76.46
2022-11-02T12:33:51.505Z,77.06
2022-11-02T12:36:18.634Z,76.96
2022-11-02T12:39:06.418Z,77.33
2022-11-02T12:41:51.420Z,77.27
2022-11-02T12:44:43.866Z,77.22
2022-11-02T12:47:36.075Z,77.62
2022-11-02T12:50:21.314Z,77.22
2022-11-02T12:52:55.692Z,77.30
2022-11-02T12:55:26.664Z,78.21
2022-11-02T12:58:01.631Z,77.94
2022-11-02T13:00:30.009Z,78.15
2022-11-02T13:03:20.535Z,77.45
2022-11-02T13:05:55.731Z,77.39
2022-11-02T13:08:30.952Z,78.07
2022-11-02T13:11:03.866Z,78.34
2022-11-02T13:13:39.885Z,78.55
2022-11-02T13:16:10.461Z,78.76
2022-11-02T13:18:48.594Z,78.37
2022-11-02T13:21:23.157Z,78.27
2022-11-02T13:23:53.888Z,78.51
2022-11-02T13:26:37.936Z,79.03
2022-11-02T13:29:05.140Z,79.47
2022-11-02T13:31:40.944Z,79.09
2022-11-02T13:34:15.504Z,79.63
2022-11-02T13:36:44.465Z,79.76
2022-11-02T13:39:39.405Z,79.96
2022-11-02T13:42:09.623Z,79.81
2022-11-02T13:44:43.071Z,79.82
2022-11-02T13:47:22.570Z,80.08
2022-11-02T13:49:53.813Z,80.63
2022-11-02T13:52:47.418Z,80.42
2022-11-02T13:55:33.944Z,80.44
2022-11-02T13:58:01.293Z,81.02
2022-11-02T14:00:41.223Z,81.37
2022-11-02T14:03:30.816Z,80.56
2022-11-02T14:06:01.654Z,80.57
2022-11-02T14:08:38.424Z,80.70
2022-11-02T14:11:11.667Z,81.09
2022-11-02T14:13:54.074Z,80.83
2022-11-02T14:16:43.555Z,81.47
2022-11-02T14:19:19.471Z,81.76
2022-11-02T14:21:50.487Z,82.07
2022-11-02T14:24:33.205Z,82.16
2022-11-02T14:27:07.450Z,82.24
2022-11-02T14:29:47.873Z,82.65
2022-11-02T14:32:52.547Z,81.56
2022-11-02T14:35:42.131Z,81.94
2022-11-02T14:38:44.468Z,82.28
2022-11-02T14:41:52.516Z,81.56
2022-11-02T14:44:45.816Z,82.24
2022-11-02T14:47:16.931Z,81.45
2022-11-02T14:49:54.759Z,82.14
2022-11-02T14:52:32.196Z,81.97
2022-11-02T14:55:37.168Z,82.51
2022-11-02T14:58:20.469Z,81.76
2022-11-02T15:00:47.758Z,81.55
2022-11-02T15:03:37.940Z,82.39
2022-11-02T15:06:15.609Z,81.92
2022-11-02T15:08:51.839Z,82.17
2022-11-02T15:11:50.997Z,83.05
2022-11-02T15:14:37.319Z,84.43
2022-11-02T15:17:10.654Z,84.22
2022-11-02T15:19:38.881Z,84.34
2022-11-02T15:22:37.063Z,84.85
2022-11-02T15:25:16.441Z,85.31
2022-11-02T15:27:46.996Z,85.00
2022-11-02T15:30:26.788Z,83.75
2022-11-02T15:35:43.019Z,83.94
2022-11-02T15:38:17.992Z,84.27
2022-11-02T15:40:46.349Z,84.86
2022-11-02T15:43:32.138Z,84.43
2022-11-02T15:46:34.998Z,84.54
2022-11-02T15:49:26.152Z,84.02
2022-11-02T15:52:10.069Z,83.67
2022-11-02T15:55:00.372Z,84.94
2022-11-02T15:57:51.730Z,83.82
2022-11-02T16:00:21.942Z,84.12
2022-11-02T16:05:42.038Z,83.82
2022-11-02T16:11:17.734Z,83.43
2022-11-02T16:14:11.717Z,83.63
2022-11-02T16:16:48.788Z,82.81
2022-11-02T16:19:20.300Z,82.54
2022-11-02T16:21:49.146Z,82.61
2022-11-02T16:24:17.304Z,82.51
2022-11-02T16:26:45.783Z,83.47
2022-11-02T16:29:27.663Z,82.75
2022-11-02T16:31:55.011Z,82.30
2022-11-02T16:34:31.861Z,82.46
2022-11-02T16:37:09.134Z,82.85
2022-11-02T16:39:40.604Z,82.48
2022-11-02T16:42:14.885Z,83.04
2022-11-02T16:47:10.663Z,83.69
2022-11-02T16:49:49.994Z,83.48
2022-11-02T16:52:17.185Z,83.11
2022-11-02T16:54:48.143Z,82.85
2022-11-02T16:57:17.777Z,82.51
2022-11-02T16:59:51.808Z,82.50
2022-11-02T17:02:24.320Z,83.56
2022-11-02T17:05:02.381Z,83.25
2022-11-02T17:10:27.091Z,83.90
2022-11-02T17:12:58.654Z,82.89
2022-11-02T17:15:30.040Z,83.23
2022-11-02T17:18:09.728Z,83.45
2022-11-02T17:20:39.033Z,83.45
2022-11-02T17:23:12.087Z,83.23
2022-11-02T17:25:41.211Z,83.98
2022-11-02T17:28:34.408Z,83.48
2022-11-02T17:31:02.188Z,83.70
2022-11-02T17:33:36.144Z,83.86
2022-11-02T17:36:07.929Z,83.53
2022-11-02T17:38:35.971Z,83.62
2022-11-02T17:41:25.006Z,83.58
2022-11-02T17:46:37.723Z,85.24
2022-11-02T17:49:06.865Z,84.97
2022-11-02T17:54:15.603Z,85.39
2022-11-02T17:59:24.766Z,85.54
2022-11-02T18:01:51.999Z,85.91
2022-11-02T18:04:21.854Z,85.98
2022-11-02T18:06:52.249Z,86.03
2022-11-02T18:12:00.822Z,85.51
2022-11-02T18:14:30.400Z,85.50
2022-11-02T18:16:58.252Z,85.69
2022-11-02T18:19:25.372Z,85.58
2022-11-02T18:21:53.600Z,85.60
2022-11-02T18:24:20.771Z,85.61
2022-11-02T18:26:48.378Z,85.99
2022-11-02T18:29:15.559Z,86.46
2022-11-02T18:31:43.003Z,85.84
2022-11-02T18:34:11.947Z,86.41
2022-11-02T18:36:41.024Z,86.02
2022-11-02T18:39:08.868Z,86.61
2022-11-02T18:41:37.210Z,86.54
2022-11-02T18:44:13.528Z,86.45
2022-11-02T18:46:43.110Z,86.94
2022-11-02T18:49:10.971Z,87.10
2022-11-02T18:51:43.480Z,88.01
2022-11-02T18:54:10.882Z,87.33
2022-11-02T18:59:21.343Z,87.22
2022-11-02T19:01:50.074Z,88.18
2022-11-02T19:04:18.567Z,87.97
2022-11-02T19:07:05.852Z,87.86
2022-11-02T19:09:36.258Z,87.28
2022-11-02T19:12:15.096Z,87.16
2022-11-02T19:14:50.873Z,86.22
2022-11-02T19:17:19.627Z,87.04
2022-11-02T19:19:49.943Z,86.41
2022-11-02T19:22:28.082Z,86.21
2022-11-02T19:24:55.351Z,86.74
2022-11-02T19:27:25.125Z,86.43
2022-11-02T19:29:53.533Z,86.26
2022-11-02T19:32:21.490Z,86.51
2022-11-02T19:34:48.567Z,86.81
2022-11-02T19:37:15.655Z,87.41
2022-11-02T19:39:48.068Z,86.81
2022-11-02T19:42:15.564Z,87.10
2022-11-02T19:44:43.170Z,87.29
2022-11-02T19:47:11.196Z,88.21
2022-11-02T19:49:38.747Z,87.96
2022-11-02T19:52:07.238Z,86.98
2022-11-02T19:54:34.848Z,87.18
2022-11-02T19:57:02.556Z,86.75
2022-11-02T19:59:30.826Z,87.03
2022-11-02T20:01:58.592Z,86.41
2022-11-02T20:04:26.096Z,87.46
2022-11-02T20:06:53.405Z,87.29
2022-11-02T20:09:20.932Z,86.90
2022-11-02T20:11:48.986Z,87.99
2022-11-02T20:14:17.281Z,88.15
2022-11-02T20:16:50.298Z,87.64
2022-11-02T20:19:25.956Z,87.38
2022-11-02T20:21:52.886Z,87.71
2022-11-02T20:24:20.983Z,86.99
2022-11-02T20:26:50.412Z,87.66
2022-11-02T20:29:18.503Z,87.89
2022-11-02T20:31:45.942Z,87.24
2022-11-02T20:34:13.194Z,87.61
2022-11-02T20:36:40.274Z,86.77
2022-11-02T20:39:08.014Z,87.54
2022-11-02T20:41:36.478Z,87.31
2022-11-02T20:44:03.720Z,87.68
2022-11-02T20:46:40.946Z,87.26
2022-11-02T20:49:29.002Z,87.51
2022-11-02T20:51:56.750Z,87.30
2022-11-02T20:54:25.623Z,87.45
2022-11-02T20:56:52.969Z,87.73
2022-11-02T20:59:19.957Z,87.54
2022-11-02T21:01:47.480Z,87.30
2022-11-02T21:04:20.377Z,87.37
2022-11-02T21:06:50.079Z,87.65
2022-11-02T21:09:18.355Z,88.25
2022-11-02T21:12:04.501Z,88.71
2022-11-02T21:14:31.658Z,88.66
2022-11-02T21:16:59.043Z,87.98
2022-11-02T21:19:28.466Z,87.76
2022-11-02T21:21:59.673Z,88.22
2022-11-02T21:24:28.379Z,88.45
2022-11-02T21:26:55.757Z,88.52
2022-11-02T21:29:23.202Z,89.06
2022-11-02T21:31:50.438Z,89.22
2022-11-02T21:34:17.877Z,89.30
2022-11-02T21:36:45.269Z,89.91
2022-11-02T21:39:12.322Z,90.21
2022-11-02T21:41:39.684Z,89.88
2022-11-02T21:44:08.402Z,89.85
2022-11-02T21:46:36.077Z,90.62
2022-11-02T21:49:03.844Z,91.38
2022-11-02T21:51:31.156Z,90.46
2022-11-02T21:53:58.854Z,90.22
2022-11-02T21:56:28.912Z,90.49
2022-11-02T21:58:56.287Z,89.97
2022-11-02T22:01:45.041Z,89.81
2022-11-02T22:04:15.775Z,90.08
2022-11-02T22:06:43.647Z,90.26
2022-11-02T22:09:13.450Z,90.63
2022-11-02T22:11:40.884Z,90.80
2022-11-02T22:14:07.903Z,90.48
2022-11-02T22:16:37.768Z,90.13
2022-11-02T22:19:07.079Z,90.10
2022-11-02T22:21:41.970Z,89.75
2022-11-02T22:24:09.808Z,90.37
2022-11-02T22:26:38.684Z,90.14
2022-11-02T22:29:06.568Z,90.70
2022-11-02T22:31:36.049Z,89.98
2022-11-02T22:34:05.408Z,90.64
2022-11-02T22:36:34.678Z,90.14
2022-11-02T22:39:03.862Z,90.91
2022-11-02T22:41:38.286Z,90.26
2022-11-02T22:44:08.375Z,90.37
2022-11-02T22:46:39.182Z,90.15
2022-11-02T22:49:08.357Z,90.39
2022-11-02T22:51:38.322Z,89.82
2022-11-02T22:54:07.915Z,90.07
2022-11-02T22:56:36.040Z,89.86
2022-11-02T22:59:04.987Z,89.35
2022-11-02T23:01:33.647Z,88.94
2022-11-02T23:04:01.437Z,88.77
2022-11-02T23:06:29.249Z,88.39
2022-11-02T23:08:57.895Z,88.62
2022-11-02T23:11:28.204Z,88.76
2022-11-02T23:13:57.082Z,89.28
2022-11-02T23:16:29.993Z,89.92
2022-11-02T23:19:26.774Z,88.86
2022-11-02T23:22:24.984Z,88.82
2022-11-02T23:25:12.567Z,88.38
2022-11-02T23:28:07.034Z,88.07
2022-11-02T23:30:55.074Z,87.53
2022-11-02T23:33:23.915Z,88.14
2022-11-02T23:36:09.855Z,87.39
2022-11-02T23:38:56.262Z,87.83
2022-11-02T23:41:23.486Z,87.75
2022-11-02T23:43:50.586Z,88.10
2022-11-02T23:46:18.016Z,88.63
2022-11-02T23:48:48.316Z,88.19
2022-11-02T23:51:37.186Z,88.94
2022-11-02T23:54:42.416Z,89.07
2022-11-02T23:57:09.795Z,89.00
2022-11-02T23:59:36.973Z,88.97
